Tiempo atmosférico en la estación meteorológica de Mora, Toledo (717 m.)



Fecha
DESCASC
Temp. máxima en grados centígrados (hora)
DESCASC
Temp. mínima en grados centígrados (hora)
DESCASC
Temp. media en grados centígrados
DESCASC
Racha de viento máxima en m/sg (hora)
DESCASC
Velocidad máxima media en intervalos de 10 minutos(hora)
DESCASC
Precipitaciones diarias en mm
DESCASC
Precipitaciones de 00:00 a 06:00 en mm
DESCASC
Precipitaciones de 06:00 a 12:00 en mm
DESCASC
Precipitaciones de 12:00 a 18:00 en mm
DESCASC
Precipitaciones de 18:00 a 24:00 en mm
DESCASC
02-04-2020 15.2 (17:00) 3.4 (07:50) 9.3 9.44 (18:00) 6.11 (18:00) 0.6 0 0 0 0.6
01-04-2020 14.3 (15:50) 6.2 (23:40) 10.3 7.5 (13:50) 3.89 (16:50) 0.4 0 0.4 0 0
31-03-2020 13.2 (15:40) 0.6 (00:00) 6.9 10 (15:20) 5 (16:00) 23.4 4 7.8 1.2 10.4
30-03-2020 11.5 (01:50) 0.5 (23:30) 6 8.89 (19:20) 5.28 (13:30) 3.6 0 0 0 3.6
29-03-2020 18.7 (17:30) 2.5 (00:00) 10.6 6.11 (15:30) 3.06 (17:50) 0 0 0 0 0
28-03-2020 15.6 (17:20) 0 (00:00) 7.8 8.06 (02:10) 3.89 (02:20) 0 0 0 0 0
27-03-2020 8 (15:30) 3.1 (00:00) 5.5 11.94 (03:50) 6.39 (14:50) 0.2 0 0 0.2 0
26-03-2020 16.5 (15:40) 4.2 (00:00) 10.3 10.28 (15:20) 6.39 (14:10) 0 0 0 0 0
25-03-2020 16.5 (17:00) 4.2 (00:00) 10.3 7.78 (03:00) 3.89 (18:30) 0 0 0 0 0
24-03-2020 13.3 (14:40) 7.6 (00:00) 10.5 13.06 (13:00) 7.5 (12:50) 0.6 0.6 0 0 0
23-03-2020 16.2 (15:20) 6.9 (00:00) 11.6 11.67 (16:50) 6.39 (17:00) 1 0 1 0 0
22-03-2020 13 (13:20) 3.5 (06:50) 8.3 6.11 (15:30) 3.33 (12:20) 6.6 0 0 5.2 1.4
21-03-2020 12.8 (18:50) 6.2 (00:00) 9.5 13.33 (01:00) 6.94 (01:00) 1 0 0.8 0.2 0
20-03-2020 17.1 (15:10) 7.4 (00:00) 12.3 14.17 (23:30) 7.5 (23:30) 0 0 0 0 0
19-03-2020 16.4 (15:00) 6.7 (00:00) 11.5 12.78 (23:50) 6.39 (23:59) 0 0 0 0 0
18-03-2020 16 (15:30) 8 (00:00) 12 12.22 (01:00) 5.28 (01:50) 0 0 0 0 0
17-03-2020 16.2 (15:40) 1.6 (00:00) 8.9 11.67 (15:10) 6.67 (15:50) 0 0 0 0 0
16-03-2020 10.7 (00:00) 3 (00:00) 6.8 6.94 (00:10) 3.89 (00:10) 3.8 3.6 0 0.2 0
15-03-2020 20.4 (16:30) 9.1 (00:00) 14.8 15.28 (19:30) 7.5 (19:40) 4.2 0 0 0 4.2
14-03-2020 23.1 (18:10) 6.4 (00:00) 14.8 5.83 (14:50) 2.22 (16:00) 0 0 0 0 0
13-03-2020 24.5 (15:50) 9.6 (07:00) 17.1 7.22 (13:30) 3.61 (18:50) 0 0 0 0 0
12-03-2020 27.3 (16:20) 12 (00:00) 19.6 8.33 (14:00) 5 (17:00) 0 0 0 0 0
11-03-2020 27.2 (14:30) 7.6 (00:00) 17.4 5.28 (15:10) 2.5 (16:50) 0 0 0 0 0
10-03-2020 23.6 (17:20) 5.8 (00:00) 14.7 5.28 (15:10) 3.06 (17:30) 0 0 0 0 0
09-03-2020 17.5 (17:30) 4.6 (00:00) 11 8.61 (15:10) 5.56 (17:40) 0 0 0 0 0
08-03-2020 17.3 (14:10) 2.4 (00:00) 9.8 9.17 (14:10) 5 (16:40) 0 0 0 0 0
07-03-2020 14.9 (15:40) 2.9 (00:00) 8.9 8.89 (10:00) 6.11 (10:50) 0 0 0 0 0
06-03-2020 12.2 (17:20) 5.5 (00:00) 8.8 15.83 (13:30) 10.56 (13:30) 0 0 0 0 0
05-03-2020 15.4 (15:20) 7.8 (00:00) 11.6 14.72 (14:20) 9.72 (14:30) 0 0 0 0 0

Gráficas

Temp. máximas Temp. mínimas Temp. medias Precipitaciones Rachas de viento máximas Velocidades máximas media en intervalos de 10 minutos

Datos horarios

Fecha y hora oficial Temperatura (ºC) Velocidad del viento (km/h) Dirección del viento Racha (km/h) Dirección de racha Precipitación (mm) Presión (hPa) Tendencia (hPa) Humedad (%)
2020-04-03 23:00:00 9.7 0 Calma 5 Sudeste 0 -- -- 74
2020-04-03 22:00:00 12.4 2 Este 9 Este 0 -- -- 61
2020-04-03 21:00:00 13.7 4 Este 14 Sudeste 0 -- -- 57
2020-04-03 20:00:00 17.2 6 Sudeste 14 Sudeste 0 -- -- 45
2020-04-03 19:00:00 17.6 4 Sudoeste 16 Este 0 -- -- 39
2020-04-03 18:00:00 17.7 5 Norte 14 Norte 0 -- -- 42
2020-04-03 17:00:00 17.1 4 Oeste 14 Noroeste 0 -- -- 41
2020-04-03 16:00:00 16.1 9 Noroeste 16 Sudoeste 0 -- -- 45
2020-04-03 15:00:00 15.7 5 Sur 15 Oeste 0 -- -- 44
2020-04-03 14:00:00 14.8 4 Sur 13 Sur 0 -- -- 47
2020-04-03 13:00:00 13.3 5 Oeste 13 Norte 0 -- -- 48
2020-04-03 12:00:00 13.2 6 Nordeste 14 Nordeste 0 -- -- 49
2020-04-03 11:00:00 11.8 3 Norte 7 Norte 0 -- -- 54
2020-04-03 10:00:00 11.1 0 Calma 3 Noroeste 0 -- -- 66
2020-04-03 09:00:00 8.2 0 Calma 4 Este 0 -- -- 82
2020-04-03 08:00:00 4.7 2 Sudeste 4 Sudeste 0 -- -- 90
2020-04-03 07:00:00 4.9 2 Sur 6 Sudoeste 0 -- -- 89
2020-04-03 06:00:00 5.3 0 Calma 5 Noroeste 0 -- -- 90
2020-04-03 05:00:00 5.7 0 Calma 5 Noroeste 0 -- -- 85
2020-04-03 04:00:00 7.8 3 Noroeste 6 Nordeste 0 -- -- 80
2020-04-03 03:00:00 8.1 2 Norte 11 Norte 0 -- -- 79
2020-04-03 02:00:00 9.2 3 Norte 6 Norte 0 -- -- 78
2020-04-03 01:00:00 9.7 5 Norte 12 Norte 0 -- -- 76
2020-04-03 00:00:00 9.9 3 Norte 13 Norte 0 -- -- 78
2020-04-02 23:00:00 10.3 8 Norte 18 Norte 0 -- -- 76
2020-04-02 22:00:00 11 12 Norte 19 Noroeste 0 -- -- 72
2020-04-02 21:00:00 11.5 9 Norte 26 Norte 0 -- -- 66
2020-04-02 20:00:00 12.2 13 Norte 28 Noroeste 0 -- -- 63
2020-04-02 19:00:00 11.6 11 Noroeste 33 Noroeste 0.6 -- -- 73
2020-04-02 18:00:00 14.1 22 Noroeste 34 Noroeste 0 -- -- 52
2020-04-02 17:00:00 15.2 9 Noroeste 24 Noroeste 0 -- -- 45
2020-04-02 16:00:00 14.4 13 Norte 24 Norte 0 -- -- 41
2020-04-02 15:00:00 13.5 9 Norte 22 Noroeste 0 -- -- 53
2020-04-02 14:00:00 13.5 9 Nordeste 20 Nordeste 0 -- -- 50
2020-04-02 13:00:00 12.5 9 Norte 18 Norte 0 -- -- 57
2020-04-02 12:00:00 11.5 9 Nordeste 15 Nordeste 0 -- -- 59
2020-04-02 11:00:00 10.2 5 Norte 13 Noroeste 0 -- -- 70
2020-04-02 10:00:00 8.5 8 Norte 12 Norte 0 -- -- 74
2020-04-02 09:00:00 8.5 0 Calma 8 Sur 0 -- -- 88
2020-04-02 08:00:00 3.8 3 Sur 10 Sur 0 -- -- 93
2020-04-02 07:00:00 4.6 0 Calma 6 Sudoeste 0 -- -- 89
2020-04-02 06:00:00 5.7 0 Calma 6 Sur 0 -- -- 87
2020-04-02 05:00:00 5.4 4 Sur 8 Sudeste 0 -- -- 87
2020-04-02 04:00:00 5.1 4 Sur 12 Sur 0 -- -- 86
2020-04-02 03:00:00 4.5 2 Sudeste 8 Sur 0 -- -- 87
2020-04-02 02:00:00 5.2 3 Sudeste 6 Sudeste 0 -- -- 83
2020-04-02 01:00:00 5.6 3 Sudeste 9 Sur 0 -- -- 81
2020-04-02 00:00:00 6.3 6 Sur 13 Sur 0 -- -- 81
2020-04-01 23:00:00 7.5 3 Sur 5 Sur 0 -- -- 77
2020-04-01 22:00:00 7.6 0 Calma 9 Oeste 0 -- -- 76
2020-04-01 21:00:00 10.2 4 Oeste 13 Sudoeste 0 -- -- 61
2020-04-01 20:00:00 13.1 8 Oeste 22 Oeste 0 -- -- 49
2020-04-01 19:00:00 13.4 12 Oeste 24 Oeste 0 -- -- 52
2020-04-01 18:00:00 12.6 13 Oeste 21 Oeste 0 -- -- 63
2020-04-01 17:00:00 12.7 12 Noroeste 24 Oeste 0 -- -- 64
2020-04-01 16:00:00 13.7 13 Oeste 23 Oeste 0 -- -- 52
2020-04-01 15:00:00 13.9 9 Sudoeste 21 Sudoeste 0 -- -- 54
2020-04-01 14:00:00 12.3 14 Sudoeste 27 Sudoeste 0 -- -- 59
2020-04-01 13:00:00 11.3 12 Sudoeste 24 Sudoeste 0 -- -- 65
2020-04-01 12:00:00 11.1 9 Sudoeste 18 Sur 0 -- -- 74
2020-04-01 11:00:00 9.2 4 Oeste 10 Sudoeste 0 -- -- 87
2020-04-01 10:00:00 8.5 3 Sur 8 Sudoeste 0 -- -- 92
2020-04-01 09:00:00 7.4 2 Sur 5 Sur 0.2 -- -- 95
2020-04-01 08:00:00 7 2 Sur 14 Sudeste 0.2 -- -- 96
2020-04-01 07:00:00 6.8 4 Sur 13 Sudeste 0 -- -- 95
2020-04-01 06:00:00 7 7 Sudeste 13 Sudeste 0 -- -- 94
2020-04-01 05:00:00 7.6 3 Sur 13 Sur 0 -- -- 93
2020-04-01 04:00:00 7.5 6 Sur 15 Sudeste 0 -- -- 93
2020-04-01 03:00:00 7.8 9 Sudeste 19 Sur 0 -- -- 93
2020-04-01 02:00:00 8.1 10 Sudeste 22 Sudeste 0 -- -- 93
2020-04-01 01:00:00 8 7 Sudeste 21 Sudeste 0 -- -- 92
2020-04-01 00:00:00 8.1 8 Sudeste 24 Sudeste 0 -- -- 90
2020-03-31 23:00:00 8.4 8 Sudeste 16 Sudeste 0.2 -- -- 91
2020-03-31 22:00:00 8.3 8 Este 15 Sudeste 1.6 -- -- 94
2020-03-31 21:00:00 8.4 3 Este 13 Sur 5.4 -- -- 94
2020-03-31 20:00:00 9.4 10 Sur 24 Sur 3.2 -- -- 90
2020-03-31 19:00:00 12.1 13 Sur 26 Sur 0 -- -- 76
2020-03-31 18:00:00 11 14 Sudeste 26 Sudeste 0.2 -- -- 87
2020-03-31 17:00:00 11.4 15 Sur 31 Sur 0.2 -- -- 82
2020-03-31 16:00:00 11.1 18 Sudoeste 36 Sur 0 -- -- 80
2020-03-31 15:00:00 12.7 13 Sudeste 34 Sur 0.6 -- -- 81
2020-03-31 14:00:00 11.1 15 Sudeste 32 Sudeste 0.2 -- -- 85
2020-03-31 13:00:00 9.5 15 Sudeste 33 Sudeste 0 -- -- 92
2020-03-31 12:00:00 7.5 18 Sudeste 34 Este 0.4 -- -- 98
2020-03-31 11:00:00 5.7 14 Sudeste 30 Sudeste 1.8 -- -- 99
2020-03-31 10:00:00 5.3 12 Este 32 Este 1.8 -- -- 99
2020-03-31 09:00:00 4 2 Sudoeste 13 Sudeste 1.2 -- -- 100
2020-03-31 08:00:00 3.8 3 Sudeste 9 Sudeste 1.2 -- -- 100
2020-03-31 07:00:00 2.9 0 Calma 6 Norte 1.4 -- -- 99
2020-03-31 06:00:00 2.7 4 Norte 7 Norte 0.8 -- -- 99
2020-03-31 05:00:00 2.3 2 Noroeste 6 Noroeste 0.8 -- -- 99
2020-03-31 04:00:00 1.8 4 Noroeste 9 Noroeste 0 -- -- 99
2020-03-31 03:00:00 1.4 5 Norte 8 Norte 0.4 -- -- 98
2020-03-31 02:00:00 1.1 5 Norte 12 Noroeste 1 -- -- 98
2020-03-31 01:00:00 0.8 8 Noroeste 12 Noroeste 1 -- -- 97
2020-03-31 00:00:00 0.6 4 Noroeste 8 Norte 0.4 -- -- 97
2020-03-30 23:00:00 0.6 4 Norte 11 Norte 1 -- -- 95
2020-03-30 22:00:00 1.6 8 Norte 20 Nordeste 1.2 -- -- 93
2020-03-30 21:00:00 2.3 12 Norte 27 Norte 1 -- -- 90
2020-03-30 20:00:00 3.4 17 Norte 32 Norte 0 -- -- 84
2020-03-30 19:00:00 5.3 16 Norte 31 Norte 0 -- -- 70
2020-03-30 18:00:00 6.7 18 Norte 31 Norte 0 -- -- 67
2020-03-30 17:00:00 8.1 17 Norte 32 Norte 0 -- -- 60
2020-03-30 16:00:00 9 17 Norte 31 Norte 0 -- -- 57
2020-03-30 15:00:00 10.7 18 Norte 26 Norte 0 -- -- 51
2020-03-30 14:00:00 10.5 14 Norte 29 Norte 0 -- -- 53
2020-03-30 13:00:00 9.9 13 Nordeste 24 Nordeste 0 -- -- 57
2020-03-30 12:00:00 9.1 14 Norte 28 Nordeste 0 -- -- 61
2020-03-30 11:00:00 8.2 13 Norte 23 Norte 0 -- -- 67
2020-03-30 10:00:00 7.5 12 Norte 24 Norte 0 -- -- 69
2020-03-30 09:00:00 6.8 10 Norte 18 Norte 0 -- -- 75
2020-03-30 08:00:00 6.7 7 Norte 13 Norte 0 -- -- 78
2020-03-30 07:00:00 6.4 4 Norte 10 Noroeste 0 -- -- 80
2020-03-30 06:00:00 7.7 5 Noroeste 9 Oeste 0 -- -- 74
2020-03-30 05:00:00 9.5 5 Oeste 9 Oeste 0 -- -- 66
2020-03-30 04:00:00 10.2 3 Sur 5 Sudoeste 0 -- -- 63
2020-03-30 03:00:00 10.5 3 Sur 15 Oeste 0 -- -- 61
2020-03-30 02:00:00 11.4 10 Oeste 19 Oeste 0 -- -- 57
2020-03-30 01:00:00 10.8 6 Sudoeste 15 Sudoeste 0 -- -- 60
2020-03-30 00:00:00 10.9 3 Sur 9 Sudoeste 0 -- -- 57
2020-03-29 23:00:00 12.1 4 Sudoeste 8 Sudoeste 0 -- -- 49
2020-03-29 22:00:00 12.9 3 Sudoeste 6 Noroeste 0 -- -- 47
2020-03-29 21:00:00 14.5 4 Noroeste 11 Oeste 0 -- -- 41
2020-03-29 20:00:00 16.6 5 Noroeste 15 Norte 0 -- -- 36
2020-03-29 19:00:00 18.2 8 Noroeste 17 Oeste 0 -- -- 33
2020-03-29 18:00:00 18.4 8 Oeste 20 Noroeste 0 -- -- 32
2020-03-29 17:00:00 17.8 9 Noroeste 18 Noroeste 0 -- -- 34
2020-03-29 16:00:00 17.3 10 Noroeste 22 Noroeste 0 -- -- 35
2020-03-29 15:00:00 16.8 7 Noroeste 17 Noroeste 0 -- -- 37
2020-03-29 14:00:00 17.2 5 Norte 20 Norte 0 -- -- 35
2020-03-29 13:00:00 15.9 5 Sudoeste 13 Noroeste 0 -- -- 38
2020-03-29 12:00:00 15.2 3 Noroeste 9 Oeste 0 -- -- 39
2020-03-29 11:00:00 13.7 2 Oeste 4 Sudoeste 0 -- -- 45
2020-03-29 10:00:00 12.3 0 Calma 9 Sur 0 -- -- 55
2020-03-29 09:00:00 4.9 5 Sur 11 Sur 0 -- -- 74
2020-03-29 08:00:00 2.5 2 Sudoeste 5 Sur 0 -- -- 82
2020-03-29 07:00:00 3.9 5 Sur 8 Sur 0 -- -- 76
2020-03-29 06:00:00 4.4 5 Sur 10 Sudeste 0 -- -- 74
2020-03-29 05:00:00 4.9 5 Sur 9 Sur 0 -- -- 73
2020-03-29 03:00:00 4.9 4 Sudeste 10 Sudeste 0 -- -- 72
2020-03-29 01:00:00 6.2 5 Sudeste 8 Sur 0 -- -- 68
2020-03-29 00:00:00 6.4 0 Calma 12 Sur 0 -- -- 67
2020-03-28 23:00:00 6.7 7 Sur 17 Sur 0 -- -- 65
2020-03-28 22:00:00 8.4 0 Calma 4 Sur 0 -- -- 61
2020-03-28 21:00:00 10.1 0 Calma 4 Sudeste 0 -- -- 53
2020-03-28 20:00:00 11.6 3 Sudeste 12 Sudeste 0 -- -- 48
2020-03-28 19:00:00 14.8 3 Este 13 Sudeste 0 -- -- 40
2020-03-28 18:00:00 15 9 Este 17 Este 0 -- -- 39
2020-03-28 17:00:00 15.5 8 Este 19 Sudeste 0 -- -- 38
2020-03-28 16:00:00 14.6 8 Sudeste 24 Este 0 -- -- 37
2020-03-28 15:00:00 14.3 10 Este 24 Nordeste 0 -- -- 35
2020-03-28 14:00:00 13.3 11 Este 24 Nordeste 0 -- -- 35
2020-03-28 13:00:00 12.9 11 Este 23 Nordeste 0 -- -- 36
2020-03-28 12:00:00 11.5 10 Sudeste 22 Sudeste 0 -- -- 45
2020-03-28 11:00:00 9.3 10 Nordeste 21 Este 0 -- -- 56
2020-03-28 10:00:00 8.4 10 Este 20 Nordeste 0 -- -- 61
2020-03-28 09:00:00 7.5 9 Este 17 Este 0 -- -- 65
2020-03-28 08:00:00 3 2 Sudoeste 4 Sur 0 -- -- 87
2020-03-28 07:00:00 0.6 3 Noroeste 10 Este 0 -- -- 89
2020-03-28 06:00:00 0.8 3 Nordeste 6 Nordeste 0 -- -- 95
2020-03-28 05:00:00 0 4 Norte 8 Noroeste 0 -- -- 93
2020-03-28 04:00:00 1.9 6 Noroeste 18 Nordeste 0 -- -- 87
2020-03-28 03:00:00 3.8 7 Este 29 Este 0 -- -- 81
2020-03-28 02:00:00 3.8 10 Este 25 Este 0 -- -- 83
2020-03-28 01:00:00 3.2 4 Norte 23 Este 0 -- -- 87
2020-03-28 00:00:00 4.2 10 Este 30 Este 0 -- -- 86
2020-03-27 23:00:00 4.5 13 Este 30 Este 0 -- -- 84
2020-03-27 22:00:00 4.9 13 Este 30 Este 0 -- -- 82
2020-03-27 21:00:00 5.3 11 Este 27 Este 0 -- -- 81
2020-03-27 20:00:00 5.8 10 Este 22 Este 0 -- -- 78
2020-03-27 19:00:00 7.4 12 Este 23 Este 0 -- -- 73
2020-03-27 18:00:00 7.1 13 Este 26 Este 0 -- -- 74
2020-03-27 17:00:00 7.4 9 Este 29 Este 0 -- -- 72
2020-03-27 16:00:00 7.7 12 Este 33 Este 0 -- -- 71
2020-03-27 15:00:00 7 20 Este 37 Este 0 -- -- 77
2020-03-27 14:00:00 6.3 19 Este 41 Este 0.2 -- -- 83
2020-03-27 13:00:00 4.6 18 Nordeste 36 Nordeste 0 -- -- 88
2020-03-27 12:00:00 4.2 16 Nordeste 34 Este 0 -- -- 90
2020-03-27 11:00:00 3.5 15 Nordeste 34 Nordeste 0 -- -- 91
2020-03-27 10:00:00 3.5 17 Nordeste 32 Nordeste 0 -- -- 85
2020-03-27 09:00:00 4.8 17 Nordeste 34 Nordeste 0 -- -- 77
2020-03-27 08:00:00 4.8 17 Nordeste 35 Nordeste 0 -- -- 84
2020-03-27 07:00:00 4 7 Norte 15 Norte 0 -- -- 88
2020-03-27 06:00:00 3.6 6 Norte 17 Norte 0 -- -- 85
2020-03-27 05:00:00 4.6 4 Norte 36 Este 0 -- -- 76
2020-03-27 04:00:00 6.1 17 Sudeste 43 Sudeste 0 -- -- 68
2020-03-27 03:00:00 6.2 14 Este 33 Sudeste 0 -- -- 63
2020-03-27 02:00:00 6.9 12 Este 27 Sudeste 0 -- -- 59
2020-03-27 01:00:00 5.9 2 Norte 17 Nordeste 0 -- -- 60
2020-03-27 00:00:00 7.4 10 Nordeste 18 Nordeste 0 -- -- 53
2020-03-26 23:00:00 7.6 3 Nordeste 10 Nordeste 0 -- -- 52
2020-03-26 22:00:00 8.4 5 Nordeste 8 Nordeste 0 -- -- 50
2020-03-26 21:00:00 9.2 4 Nordeste 15 Norte 0 -- -- 46
2020-03-26 20:00:00 11 10 Norte 24 Nordeste 0 -- -- 41
2020-03-26 19:00:00 14.1 10 Norte 27 Noroeste 0 -- -- 33
2020-03-26 18:00:00 15.3 18 Noroeste 36 Noroeste 0 -- -- 29
2020-03-26 17:00:00 15.7 19 Norte 36 Norte 0 -- -- 28
2020-03-26 16:00:00 16.4 18 Noroeste 37 Noroeste 0 -- -- 24
2020-03-26 15:00:00 16 19 Noroeste 36 Norte 0 -- -- 23
2020-03-26 14:00:00 15.3 22 Noroeste 37 Noroeste 0 -- -- 27
2020-03-26 13:00:00 14.3 6 Noroeste 27 Noroeste 0 -- -- 31
2020-03-26 12:00:00 12.8 8 Norte 18 Norte 0 -- -- 31
2020-03-26 11:00:00 11.1 8 Nordeste 17 Nordeste 0 -- -- 38
2020-03-26 10:00:00 10.7 8 Norte 15 Nordeste 0 -- -- 49
2020-03-26 09:00:00 10.3 5 Norte 10 Norte 0 -- -- 55
2020-03-26 08:00:00 6.6 2 Oeste 6 Noroeste 0 -- -- 93
2020-03-26 07:00:00 4.5 0 Calma 3 Sudoeste 0 -- -- 92
2020-03-26 06:00:00 6.6 2 Este 4 Sudoeste 0 -- -- 91
2020-03-26 05:00:00 7.1 0 Calma 6 Sudeste 0 -- -- 87
2020-03-26 04:00:00 7.3 0 Calma 6 Oeste 0 -- -- 86
2020-03-26 03:00:00 7.5 2 Oeste 8 Sur 0 -- -- 80
2020-03-26 02:00:00 8.8 4 Sur 11 Sudoeste 0 -- -- 76
2020-03-26 01:00:00 9.2 4 Sur 21 Oeste 0 -- -- 74
2020-03-26 00:00:00 10 11 Oeste 18 Oeste 0 -- -- 72
2020-03-25 23:00:00 10.1 5 Sudoeste 13 Oeste 0 -- -- 77
2020-03-25 22:00:00 10.2 3 Sur 13 Oeste 0 -- -- 74
2020-03-25 21:00:00 11.5 7 Sudoeste 18 Oeste 0 -- -- 67
2020-03-25 20:00:00 13.1 9 Oeste 18 Oeste 0 -- -- 58
2020-03-25 19:00:00 15.4 12 Oeste 21 Oeste 0 -- -- 47
2020-03-25 18:00:00 16.3 11 Oeste 20 Oeste 0 -- -- 43
2020-03-25 17:00:00 16.5 6 Noroeste 22 Noroeste 0 -- -- 43
2020-03-25 16:00:00 16.1 7 Oeste 20 Noroeste 0 -- -- 42
2020-03-25 15:00:00 15.3 7 Norte 19 Noroeste 0 -- -- 42
2020-03-25 14:00:00 14.1 9 Oeste 21 Noroeste 0 -- -- 52
2020-03-25 13:00:00 13.1 11 Oeste 20 Oeste 0 -- -- 57
2020-03-25 12:00:00 13.3 4 Sur 12 Sudoeste 0 -- -- 54
2020-03-25 11:00:00 11.6 5 Sur 13 Sudeste 0 -- -- 57
2020-03-25 10:00:00 10.9 4 Sudeste 14 Sur 0 -- -- 64
2020-03-25 09:00:00 9.4 8 Sudeste 14 Este 0 -- -- 72
2020-03-25 08:00:00 5.5 4 Sur 13 Sur 0 -- -- 90
2020-03-25 07:00:00 4.3 5 Sur 13 Sudeste 0 -- -- 92
2020-03-25 06:00:00 4.9 5 Sur 16 Sur 0 -- -- 89
2020-03-25 05:00:00 5.8 8 Sur 19 Sudeste 0 -- -- 87
2020-03-25 04:00:00 6.4 10 Sudeste 28 Sudeste 0 -- -- 84
2020-03-25 03:00:00 6.8 13 Sudeste 28 Sudeste 0 -- -- 83
2020-03-25 02:00:00 7.1 11 Sudeste 27 Sur 0 -- -- 82
2020-03-25 01:00:00 7.4 6 Sudeste 17 Sudeste 0 -- -- 82
2020-03-25 00:00:00 7.6 6 Sur 27 Sudeste 0 -- -- 81
2020-03-24 23:00:00 8.3 11 Sudeste 29 Sudeste 0 -- -- 77
2020-03-24 22:00:00 8.6 11 Sudeste 34 Sudeste 0 -- -- 75
2020-03-24 21:00:00 9.5 12 Sudeste 27 Este 0 -- -- 72
2020-03-24 20:00:00 9.9 14 Sudeste 30 Este 0 -- -- 72
2020-03-24 19:00:00 10.6 15 Este 29 Este 0 -- -- 70
2020-03-24 18:00:00 11.9 15 Este 32 Este 0 -- -- 65
2020-03-24 17:00:00 12.4 17 Este 37 Este 0 -- -- 62
2020-03-24 16:00:00 12.4 19 Este 34 Este 0 -- -- 62
2020-03-24 15:00:00 13.2 13 Este 35 Este 0 -- -- 63
2020-03-24 14:00:00 12.3 16 Este 37 Nordeste 0 -- -- 66
2020-03-24 13:00:00 12.3 26 Este 47 Este 0 -- -- 67
2020-03-24 12:00:00 11.5 20 Este 36 Este 0 -- -- 74
2020-03-24 11:00:00 10.3 17 Nordeste 28 Nordeste 0 -- -- 78
2020-03-24 10:00:00 9.7 10 Nordeste 18 Nordeste 0 -- -- 85
2020-03-24 09:00:00 8.4 10 Nordeste 15 Nordeste 0 -- -- 90
2020-03-24 08:00:00 7.9 8 Nordeste 15 Nordeste 0 -- -- 92
2020-03-24 07:00:00 7.9 8 Nordeste 24 Nordeste 0 -- -- 93
2020-03-24 06:00:00 7.8 10 Nordeste 21 Nordeste 0 -- -- 95
2020-03-24 05:00:00 7.8 8 Nordeste 13 Nordeste 0.2 -- -- 95
2020-03-24 04:00:00 8 8 Nordeste 20 Este 0.4 -- -- 94
2020-03-24 03:00:00 8.8 13 Este 27 Nordeste 0 -- -- 87
2020-03-24 02:00:00 8.8 13 Este 27 Este 0 -- -- 87
2020-03-24 01:00:00 9.4 17 Este 41 Este 0 -- -- 84
2020-03-24 00:00:00 9.6 23 Este 40 Este 0 -- -- 81
2020-03-23 23:00:00 9.7 21 Este 39 Este 0 -- -- 79
2020-03-23 22:00:00 10.1 20 Este 37 Este 0 -- -- 77
2020-03-23 21:00:00 10.3 15 Este 36 Este 0 -- -- 75
2020-03-23 20:00:00 10.9 17 Este 34 Este 0 -- -- 72
2020-03-23 19:00:00 11.8 17 Este 33 Este 0 -- -- 67
2020-03-23 18:00:00 12.3 19 Este 37 Nordeste 0 -- -- 68
2020-03-23 17:00:00 13.6 23 Este 42 Nordeste 0 -- -- 67
2020-03-23 16:00:00 14 20 Este 36 Este 0 -- -- 60
2020-03-23 15:00:00 15.6 12 Este 27 Este 0 -- -- 54
2020-03-23 14:00:00 13.8 13 Este 27 Este 0 -- -- 61
2020-03-23 13:00:00 12.6 11 Este 23 Este 0 -- -- 70
2020-03-23 12:00:00 10.7 5 Nordeste 18 Este 0 -- -- 89
2020-03-23 11:00:00 8.5 8 Nordeste 21 Nordeste 0.4 -- -- 92
2020-03-23 10:00:00 8.2 10 Nordeste 18 Nordeste 0 -- -- 96
2020-03-23 09:00:00 7.2 4 Norte 9 Nordeste 0 -- -- 95
2020-03-23 08:00:00 7 8 Nordeste 16 Este 0.6 -- -- 95
2020-03-23 07:00:00 7.2 8 Nordeste 18 Este 0 -- -- 94
2020-03-23 06:00:00 7.4 6 Este 19 Este 0 -- -- 92
2020-03-23 05:00:00 7.5 8 Este 19 Este 0 -- -- 92
2020-03-23 04:00:00 7.4 8 Este 21 Este 0 -- -- 93
2020-03-23 03:00:00 7.6 7 Este 19 Sudeste 0 -- -- 92
2020-03-23 02:00:00 7.8 8 Este 24 Este 0 -- -- 93
2020-03-23 01:00:00 8.1 8 Este 22 Este 0 -- -- 93
2020-03-23 00:00:00 7.7 6 Nordeste 18 Nordeste 0 -- -- 94
2020-03-22 23:00:00 7.8 8 Nordeste 14 Norte 0.2 -- -- 96
2020-03-22 22:00:00 7.8 10 Norte 17 Norte 0.4 -- -- 96
2020-03-22 21:00:00 7.8 4 Norte 6 Norte 0 -- -- 93
2020-03-22 20:00:00 7.8 2 Norte 5 Norte 0.6 -- -- 91
2020-03-22 19:00:00 8.1 2 Norte 7 Noroeste 0.2 -- -- 88
2020-03-22 18:00:00 8.5 5 Noroeste 8 Noroeste 0.2 -- -- 85
2020-03-22 17:00:00 7.8 6 Nordeste 13 Este 2.4 -- -- 89
2020-03-22 16:00:00 7.9 8 Este 22 Sudeste 2.6 -- -- 87
2020-03-22 15:00:00 12.2 5 Este 18 Nordeste 0 -- -- 63
2020-03-22 14:00:00 12.3 4 Norte 21 Nordeste 0 -- -- 60
2020-03-22 13:00:00 11.9 9 Nordeste 20 Norte 0 -- -- 62
2020-03-22 12:00:00 11.4 9 Nordeste 18 Nordeste 0 -- -- 66
2020-03-22 11:00:00 10.2 7 Norte 14 Nordeste 0 -- -- 76
2020-03-22 10:00:00 7 2 Este 12 Nordeste 0 -- -- 96
2020-03-22 09:00:00 5 6 Norte 12 Norte 0 -- -- 97
2020-03-22 08:00:00 4.3 3 Oeste 8 Este 0 -- -- 97
2020-03-22 07:00:00 3.9 3 Norte 9 Sudeste 0 -- -- 97
2020-03-22 06:00:00 5 5 Sudeste 11 Este 0 -- -- 95
2020-03-22 05:00:00 5 3 Norte 10 Norte 0 -- -- 94
2020-03-22 04:00:00 5.7 2 Norte 12 Sudeste 0 -- -- 91
2020-03-22 03:00:00 5.8 5 Sudeste 10 Sudeste 0 -- -- 89
2020-03-22 02:00:00 5.8 6 Sudeste 21 Sudeste 0 -- -- 89
2020-03-22 01:00:00 6 9 Sudeste 20 Sur 0 -- -- 89
2020-03-22 00:00:00 6.2 6 Este 24 Sudeste 0 -- -- 88
2020-03-21 23:00:00 6.2 8 Sudeste 28 Este 0 -- -- 88
2020-03-21 22:00:00 6.8 9 Sudeste 20 Sudeste 0 -- -- 86
2020-03-21 21:00:00 7.6 9 Este 17 Sudeste 0 -- -- 84
2020-03-21 20:00:00 8.8 8 Este 18 Este 0 -- -- 77
2020-03-21 19:00:00 12.3 5 Este 10 Este 0 -- -- 56
2020-03-21 18:00:00 10.3 3 Sudeste 10 Sudoeste 0 -- -- 62
2020-03-21 17:00:00 10.8 2 Sudoeste 15 Sur 0 -- -- 66
2020-03-21 16:00:00 9.6 8 Sur 15 Sur 0 -- -- 72
2020-03-21 15:00:00 10 6 Sur 17 Sur 0 -- -- 71
2020-03-21 14:00:00 9.2 5 Sur 14 Sur 0 -- -- 77
2020-03-21 13:00:00 8.5 6 Sur 13 Sur 0.2 -- -- 79
2020-03-21 12:00:00 8.3 7 Sudoeste 20 Sudoeste 0 -- -- 79
2020-03-21 11:00:00 7.5 11 Sudoeste 29 Sudoeste 0 -- -- 85
2020-03-21 10:00:00 8.4 8 Sur 22 Sudeste 0 -- -- 93
2020-03-21 09:00:00 8.1 10 Sudeste 28 Sudeste 0.8 -- -- 94
2020-03-21 08:00:00 8 12 Sudeste 35 Sudeste 0 -- -- 91
2020-03-21 07:00:00 7.8 19 Sudeste 35 Sudeste 0 -- -- 91
2020-03-21 06:00:00 7.9 16 Sudeste 32 Este 0 -- -- 89
2020-03-21 05:00:00 8 15 Este 36 Sudeste 0 -- -- 88
2020-03-21 04:00:00 8 18 Sudeste 38 Este 0 -- -- 88
2020-03-21 03:00:00 8 17 Sudeste 38 Sudeste 0 -- -- 87
2020-03-21 02:00:00 8.1 16 Sudeste 42 Sudeste 0 -- -- 86
2020-03-21 01:00:00 8 25 Sudeste 48 Sudeste 0 -- -- 84
2020-03-21 00:00:00 8.1 18 Sudeste 51 Sudeste 0 -- -- 81
2020-03-20 23:00:00 8.6 19 Este 45 Este 0 -- -- 80
2020-03-20 22:00:00 8.9 21 Este 40 Este 0 -- -- 82
2020-03-20 21:00:00 9.8 19 Este 42 Este 0 -- -- 81
2020-03-20 20:00:00 10.8 17 Este 37 Este 0 -- -- 76
2020-03-20 19:00:00 12.2 20 Este 36 Este 0 -- -- 71
2020-03-20 18:00:00 14.8 19 Este 36 Este 0 -- -- 61
2020-03-20 17:00:00 16.8 16 Este 30 Este 0 -- -- 47
2020-03-20 16:00:00 16.7 16 Este 33 Sudeste 0 -- -- 48
2020-03-20 15:00:00 16.7 15 Este 36 Este 0 -- -- 49
2020-03-20 14:00:00 16 13 Este 32 Este 0 -- -- 53
2020-03-20 13:00:00 14.3 15 Este 32 Nordeste 0 -- -- 58
2020-03-20 12:00:00 13.4 17 Este 35 Este 0 -- -- 61
2020-03-20 11:00:00 12.6 15 Este 33 Este 0 -- -- 66
2020-03-20 10:00:00 9.8 10 Sudeste 27 Este 0 -- -- 79
2020-03-20 09:00:00 8.6 11 Sudeste 31 Sudeste 0 -- -- 82
2020-03-20 08:00:00 8 14 Este 29 Este 0 -- -- 86
2020-03-20 07:00:00 7.4 13 Este 35 Este 0 -- -- 89
2020-03-20 06:00:00 7.7 13 Sudeste 32 Sudeste 0 -- -- 87
2020-03-20 05:00:00 8.3 17 Sudeste 35 Este 0 -- -- 83
2020-03-20 04:00:00 8.5 18 Sudeste 36 Este 0 -- -- 84
2020-03-20 03:00:00 8.8 18 Sudeste 40 Este 0 -- -- 87
2020-03-20 02:00:00 9 20 Sudeste 40 Este 0 -- -- 88
2020-03-20 01:00:00 9.1 18 Sudeste 42 Sudeste 0 -- -- 87
2020-03-20 00:00:00 9.6 23 Sudeste 46 Este 0 -- -- 85
2020-03-19 23:00:00 10 14 Este 38 Este 0 -- -- 82
2020-03-19 22:00:00 10.3 14 Este 37 Este 0 -- -- 80
2020-03-19 21:00:00 10.8 11 Este 27 Este 0 -- -- 77
2020-03-19 20:00:00 11.9 9 Este 30 Este 0 -- -- 71
2020-03-19 19:00:00 13.3 15 Este 32 Este 0 -- -- 63
2020-03-19 18:00:00 14.7 13 Este 33 Este 0 -- -- 58
2020-03-19 17:00:00 15.1 15 Este 31 Nordeste 0 -- -- 57
2020-03-19 16:00:00 15.9 15 Este 32 Este 0 -- -- 55
2020-03-19 15:00:00 16.4 14 Este 31 Este 0 -- -- 53
2020-03-19 14:00:00 14.7 17 Este 31 Nordeste 0 -- -- 58
2020-03-19 13:00:00 13.1 13 Este 29 Sudeste 0 -- -- 63
2020-03-19 12:00:00 12.4 16 Este 30 Sudeste 0 -- -- 66
2020-03-19 11:00:00 11.6 16 Este 33 Este 0 -- -- 69
2020-03-19 10:00:00 9.9 14 Este 31 Este 0 -- -- 76
2020-03-19 09:00:00 8.6 16 Este 30 Este 0 -- -- 80
2020-03-19 08:00:00 7 3 Este 23 Sudeste 0 -- -- 86
2020-03-19 07:00:00 6.7 12 Este 28 Este 0 -- -- 86
2020-03-19 06:00:00 6.9 8 Este 36 Sudeste 0 -- -- 86
2020-03-19 05:00:00 7.2 15 Este 36 Este 0 -- -- 85
2020-03-19 04:00:00 7.8 15 Este 38 Este 0 -- -- 82
2020-03-19 03:00:00 7.9 15 Este 31 Sudeste 0 -- -- 79
2020-03-19 02:00:00 8.4 10 Sudeste 32 Sudeste 0 -- -- 77
2020-03-19 01:00:00 9.4 13 Sudeste 35 Sudeste 0 -- -- 69
2020-03-19 00:00:00 10 14 Sudeste 37 Sudeste 0 -- -- 61
2020-03-18 23:00:00 10.9 13 Este 34 Este 0 -- -- 61
2020-03-18 22:00:00 11.7 12 Este 28 Este 0 -- -- 58
2020-03-18 21:00:00 12.2 7 Este 23 Este 0 -- -- 59
2020-03-18 20:00:00 12.7 9 Este 18 Este 0 -- -- 63
2020-03-18 19:00:00 12.9 6 Sudeste 19 Sudeste 0 -- -- 62
2020-03-18 18:00:00 13.5 7 Este 26 Este 0 -- -- 60
2020-03-18 17:00:00 14.7 12 Este 27 Sudeste 0 -- -- 56
2020-03-18 16:00:00 15 15 Este 38 Este 0 -- -- 52
2020-03-18 15:00:00 15.8 14 Este 33 Este 0 -- -- 56
2020-03-18 14:00:00 13.2 13 Este 30 Este 0 -- -- 67
2020-03-18 13:00:00 12.5 15 Este 33 Este 0 -- -- 69
2020-03-18 12:00:00 12.2 10 Este 29 Este 0 -- -- 70
2020-03-18 11:00:00 10.9 8 Este 34 Este 0 -- -- 76
2020-03-18 10:00:00 9.5 6 Nordeste 26 Nordeste 0 -- -- 81
2020-03-18 09:00:00 8.5 7 Nordeste 20 Nordeste 0 -- -- 84
2020-03-18 08:00:00 8.5 11 Nordeste 29 Nordeste 0 -- -- 83
2020-03-18 07:00:00 8 4 Norte 39 Este 0 -- -- 86
2020-03-18 06:00:00 8.9 19 Este 37 Este 0 -- -- 82
2020-03-18 05:00:00 8.4 2 Sudeste 29 Este 0 -- -- 86
2020-03-18 04:00:00 9.6 18 Este 39 Este 0 -- -- 78
2020-03-18 03:00:00 9.7 15 Este 42 Este 0 -- -- 82
2020-03-18 02:00:00 10.1 17 Este 35 Este 0 -- -- 81
2020-03-18 01:00:00 10.6 13 Este 44 Este 0 -- -- 80
2020-03-18 00:00:00 11.4 15 Este 30 Este 0 -- -- 80
2020-03-17 23:00:00 11.6 15 Este 30 Este 0 -- -- 82
2020-03-17 22:00:00 11.5 10 Nordeste 24 Nordeste 0 -- -- 83
2020-03-17 21:00:00 11.8 12 Nordeste 39 Este 0 -- -- 79
2020-03-17 20:00:00 12.7 12 Este 36 Este 0 -- -- 74
2020-03-17 19:00:00 13.7 13 Este 33 Este 0 -- -- 72
2020-03-17 18:00:00 14.3 17 Este 36 Este 0 -- -- 68
2020-03-17 17:00:00 15.6 15 Este 40 Este 0 -- -- 64
2020-03-17 16:00:00 16 22 Este 42 Este 0 -- -- 59
2020-03-17 15:00:00 15.6 22 Este 38 Este 0 -- -- 57
2020-03-17 14:00:00 14.3 19 Este 41 Este 0 -- -- 61
2020-03-17 13:00:00 12.5 18 Este 40 Este 0 -- -- 67
2020-03-17 12:00:00 11.5 14 Este 41 Este 0 -- -- 65
2020-03-17 11:00:00 10.9 14 Este 32 Este 0 -- -- 70
2020-03-17 10:00:00 8.5 12 Nordeste 21 Nordeste 0 -- -- 83
2020-03-17 09:00:00 5.3 4 Norte 8 Norte 0 -- -- 88
2020-03-17 08:00:00 2.8 6 Noroeste 13 Noroeste 0 -- -- 95
2020-03-17 07:00:00 2.4 9 Noroeste 14 Norte 0 -- -- 95
2020-03-17 06:00:00 1.9 2 Noroeste 8 Noroeste 0 -- -- 94
2020-03-17 05:00:00 1.9 3 Noroeste 6 Este 0 -- -- 95
2020-03-17 04:00:00 1.8 5 Nordeste 18 Nordeste 0 -- -- 93
2020-03-17 03:00:00 2.9 0 Calma 9 Noroeste 0 -- -- 92
2020-03-17 02:00:00 2.3 3 Norte 14 Este 0 -- -- 88
2020-03-17 01:00:00 4.4 6 Este 19 Sudeste 0 -- -- 85
2020-03-17 00:00:00 4.4 5 Sudeste 14 Sudeste 0 -- -- 84
2020-03-16 23:00:00 4.4 5 Este 12 Sudeste 0 -- -- 83
2020-03-16 22:00:00 5 4 Este 21 Sudeste 0 -- -- 79
2020-03-16 21:00:00 4.9 7 Este 17 Este 0 -- -- 78
2020-03-16 20:00:00 4.5 4 Este 9 Este 0 -- -- 78
2020-03-16 19:00:00 5.2 3 Sudeste 17 Sudeste 0 -- -- 77
2020-03-16 18:00:00 5.2 9 Sur 24 Sudeste 0 -- -- 80
2020-03-16 17:00:00 7.1 5 Este 22 Este 0 -- -- 70
2020-03-16 16:00:00 7.2 8 Este 17 Este 0 -- -- 60
2020-03-16 15:00:00 6.3 8 Sur 17 Sur 0.2 -- -- 79
2020-03-16 14:00:00 4.5 6 Noroeste 17 Norte 0 -- -- 89
2020-03-16 13:00:00 4.1 9 Noroeste 18 Oeste 0 -- -- 88
2020-03-16 12:00:00 3.8 9 Oeste 17 Oeste 0 -- -- 89
2020-03-16 11:00:00 4.9 5 Sudoeste 13 Sudoeste 0 -- -- 79
2020-03-16 10:00:00 5 6 Sudoeste 15 Sudoeste 0 -- -- 79
2020-03-16 09:00:00 4.1 6 Sudoeste 13 Sur 0 -- -- 81
2020-03-16 08:00:00 3.2 4 Oeste 19 Oeste 0 -- -- 81
2020-03-16 07:00:00 3.7 4 Oeste 16 Oeste 0 -- -- 87
2020-03-16 06:00:00 4.7 9 Sudoeste 22 Sudoeste 0 -- -- 85
2020-03-16 05:00:00 6.5 10 Sudoeste 17 Sudoeste 0 -- -- 85
2020-03-16 04:00:00 7.1 10 Sur 24 Sudoeste 1.2 -- -- 88
2020-03-16 03:00:00 8 9 Sudoeste 22 Sudoeste 0.6 -- -- 88
2020-03-16 02:00:00 8.9 6 Oeste 16 Oeste 0.6 -- -- 88
2020-03-16 01:00:00 10.2 7 Sur 25 Sur 1.2 -- -- 92
2020-03-16 00:00:00 10.7 11 Sur 22 Sur 0.4 -- -- 89
2020-03-15 23:00:00 10.5 9 Sur 26 Sur 0.8 -- -- 89
2020-03-15 22:00:00 10.9 10 Sur 26 Sudeste 0.4 -- -- 84
2020-03-15 21:00:00 11.6 11 Sudeste 41 Sur 2.6 -- -- 78
2020-03-15 20:00:00 12.9 26 Sur 55 Sudoeste 0 -- -- 72
2020-03-15 19:00:00 17.3 10 Sudoeste 32 Sudoeste 0 -- -- 53
2020-03-15 18:00:00 18.7 15 Sudoeste 30 Sudoeste 0 -- -- 47
2020-03-15 17:00:00 17.8 12 Noroeste 32 Oeste 0 -- -- 55
2020-03-15 16:00:00 17.8 12 Sudoeste 26 Oeste 0 -- -- 64
2020-03-15 15:00:00 18.3 16 Sudoeste 31 Sudoeste 0 -- -- 56
2020-03-15 14:00:00 19.5 17 Sudoeste 30 Sudoeste 0 -- -- 47
2020-03-15 13:00:00 18.2 13 Oeste 28 Oeste 0 -- -- 57
2020-03-15 12:00:00 19.7 11 Sudeste 24 Sur 0 -- -- 53
2020-03-15 11:00:00 16.3 11 Sur 23 Sur 0 -- -- 61
2020-03-15 10:00:00 14.3 9 Sur 23 Sudeste 0 -- -- 65
2020-03-15 09:00:00 12.3 10 Sur 18 Sudeste 0 -- -- 75
2020-03-15 08:00:00 9.6 7 Sur 16 Sur 0 -- -- 86
2020-03-15 07:00:00 9.4 9 Sur 17 Sudeste 0 -- -- 86
2020-03-15 06:00:00 9.5 9 Sudeste 14 Sudeste 0 -- -- 81
2020-03-15 05:00:00 9.2 4 Sur 8 Sur 0 -- -- 75
2020-03-15 04:00:00 9.6 0 Calma 9 Sur 0 -- -- 75
2020-03-15 03:00:00 9.9 3 Sur 9 Sudeste 0 -- -- 72
2020-03-15 02:00:00 10.8 3 Sudoeste 13 Oeste 0 -- -- 73
2020-03-15 01:00:00 11 3 Sur 8 Sur 0 -- -- 70
2020-03-15 00:00:00 11.6 3 Sur 6 Sudeste 0 -- -- 67
2020-03-14 23:00:00 12.5 2 Sudeste 4 Sur 0 -- -- 63
2020-03-14 22:00:00 13.4 0 Calma 4 Sudeste 0 -- -- 59
2020-03-14 21:00:00 14.1 0 Calma 4 Norte 0 -- -- 59
2020-03-14 20:00:00 16.7 4 Norte 6 Noroeste 0 -- -- 49
2020-03-14 19:00:00 20.8 3 Sudeste 8 Sur 0 -- -- 36
2020-03-14 18:00:00 22.7 4 Este 15 Este 0 -- -- 33
2020-03-14 17:00:00 21.2 3 Oeste 17 Nordeste 0 -- -- 42
2020-03-14 16:00:00 21.6 8 Nordeste 19 Nordeste 0 -- -- 43
2020-03-14 15:00:00 21.2 7 Norte 21 Oeste 0 -- -- 45
2020-03-14 14:00:00 20.6 4 Nordeste 12 Este 0 -- -- 48
2020-03-14 13:00:00 19.5 3 Sur 14 Sudoeste 0 -- -- 51
2020-03-14 12:00:00 17.6 5 Nordeste 12 Nordeste 0 -- -- 58
2020-03-14 11:00:00 16.2 3 Norte 8 Nordeste 0 -- -- 62
2020-03-14 10:00:00 14.8 0 Calma 4 Noroeste 0 -- -- 66
2020-03-14 09:00:00 12.8 0 Calma 7 Sur 0 -- -- 76
2020-03-14 08:00:00 8.3 3 Sur 7 Sudeste 0 -- -- 90
2020-03-14 07:00:00 6.4 2 Oeste 4 Noroeste 0 -- -- 90
2020-03-14 06:00:00 9.1 3 Sudeste 10 Sudoeste 0 -- -- 86
2020-03-14 05:00:00 9.2 7 Sur 13 Sur 0 -- -- 84
2020-03-14 04:00:00 10.4 5 Sur 10 Sudoeste 0 -- -- 87
2020-03-14 03:00:00 11.1 5 Sur 8 Sur 0 -- -- 86
2020-03-14 02:00:00 12.1 3 Sudeste 6 Sudeste 0 -- -- 81
2020-03-14 01:00:00 12.6 3 Sudeste 8 Sur 0 -- -- 80
2020-03-14 00:00:00 12.8 4 Sudoeste 8 Sudoeste 0 -- -- 78
2020-03-13 23:00:00 13.5 4 Sur 8 Sudeste 0 -- -- 73
2020-03-13 22:00:00 14.6 4 Sudeste 14 Oeste 0 -- -- 66
2020-03-13 21:00:00 15.9 7 Oeste 12 Oeste 0 -- -- 61
2020-03-13 20:00:00 17.9 7 Oeste 19 Oeste 0 -- -- 58
2020-03-13 19:00:00 20.8 10 Oeste 23 Sudoeste 0 -- -- 39
2020-03-13 18:00:00 21.9 9 Noroeste 18 Norte 0 -- -- 42
2020-03-13 17:00:00 23.2 5 Norte 20 Nordeste 0 -- -- 39
2020-03-13 16:00:00 24.4 4 Noroeste 25 Sur 0 -- -- 36
2020-03-13 15:00:00 23.2 10 Sudoeste 18 Sudoeste 0 -- -- 31
2020-03-13 14:00:00 22.7 6 Sur 26 Sudeste 0 -- -- 34
2020-03-13 13:00:00 21.7 6 Sudoeste 14 Sudeste 0 -- -- 41
2020-03-13 12:00:00 20.6 5 Nordeste 10 Norte 0 -- -- 48
2020-03-13 11:00:00 19.5 4 Oeste 8 Noroeste 0 -- -- 48
2020-03-13 10:00:00 18.9 0 Calma 5 Sur 0 -- -- 50
2020-03-13 09:00:00 12.8 3 Sur 9 Sur 0 -- -- 64
2020-03-13 08:00:00 10 3 Sur 10 Sudeste 0 -- -- 73
2020-03-13 07:00:00 9.6 2 Sur 9 Sur 0 -- -- 74
2020-03-13 06:00:00 11 4 Sur 8 Sudeste 0 -- -- 68
2020-03-13 05:00:00 10 3 Sur 9 Noroeste 0 -- -- 73
2020-03-13 04:00:00 11.9 6 Sudeste 12 Sur 0 -- -- 66
2020-03-13 03:00:00 12.9 4 Sur 10 Sudeste 0 -- -- 62
2020-03-13 02:00:00 12.9 4 Sudeste 11 Sudeste 0 -- -- 60
2020-03-13 01:00:00 13.6 7 Sudeste 13 Sudeste 0 -- -- 57
2020-03-13 00:00:00 15.4 5 Sur 8 Sur 0 -- -- 52
2020-03-12 23:00:00 15.9 4 Sur 9 Este 0 -- -- 50
2020-03-12 22:00:00 16.7 7 Sur 10 Sur 0 -- -- 49
2020-03-12 21:00:00 18.1 0 Calma 13 Noroeste 0 -- -- 46
2020-03-12 20:00:00 19.6 2 Sudoeste 9 Oeste 0 -- -- 42
2020-03-12 19:00:00 21.8 8 Sudoeste 18 Oeste 0 -- -- 36
2020-03-12 18:00:00 23.8 12 Sudoeste 26 Sudoeste 0 -- -- 33
2020-03-12 17:00:00 25.5 18 Oeste 29 Oeste 0 -- -- 30
2020-03-12 16:00:00 26.8 10 Sudoeste 28 Sur 0 -- -- 28
2020-03-12 15:00:00 26.3 12 Sudoeste 28 Sudoeste 0 -- -- 28
2020-03-12 14:00:00 26.7 12 Sudoeste 30 Sur 0 -- -- 26
2020-03-12 13:00:00 25.8 5 Oeste 13 Sur 0 -- -- 27
2020-03-12 12:00:00 23.7 7 Sudeste 17 Sur 0 -- -- 40
2020-03-12 11:00:00 22.9 9 Sudeste 16 Sur 0 -- -- 39
2020-03-12 10:00:00 18.8 5 Sur 10 Sur 0 -- -- 50
2020-03-12 09:00:00 13.9 5 Sudeste 11 Sudeste 0 -- -- 63
2020-03-12 08:00:00 12.1 0 Calma 15 Sur 0 -- -- 69
2020-03-12 07:00:00 12.9 9 Sur 16 Sur 0 -- -- 68
2020-03-12 06:00:00 14.2 10 Sur 17 Sur 0 -- -- 64
2020-03-12 05:00:00 15.2 9 Sur 15 Sur 0 -- -- 60
2020-03-12 04:00:00 14.5 5 Sur 12 Sur 0 -- -- 63
2020-03-12 03:00:00 13.7 0 Calma 14 Sudeste 0 -- -- 67
2020-03-12 02:00:00 14.7 8 Sur 14 Sur 0 -- -- 65
2020-03-12 01:00:00 13.5 8 Sudeste 12 Sudeste 0 -- -- 67
2020-03-12 00:00:00 13.7 6 Sur 10 Sudeste 0 -- -- 65
2020-03-11 23:00:00 16.2 4 Sudeste 6 Sur 0 -- -- 59
2020-03-11 22:00:00 17.3 4 Sur 8 Sur 0 -- -- 57
2020-03-11 21:00:00 18.4 2 Sur 5 Sudoeste 0 -- -- 53
2020-03-11 20:00:00 19.6 3 Noroeste 11 Norte 0 -- -- 49
2020-03-11 19:00:00 21.9 6 Norte 12 Norte 0 -- -- 44
2020-03-11 18:00:00 25.7 6 Norte 13 Noroeste 0 -- -- 35
2020-03-11 17:00:00 26.1 9 Noroeste 15 Norte 0 -- -- 35
2020-03-11 16:00:00 27 6 Norte 19 Norte 0 -- -- 32
2020-03-11 15:00:00 27.1 4 Este 16 Nordeste 0 -- -- 30
2020-03-11 14:00:00 26.4 3 Nordeste 8 Este 0 -- -- 30
2020-03-11 13:00:00 24.6 4 Nordeste 10 Oeste 0 -- -- 34
2020-03-11 12:00:00 24 4 Este 9 Este 0 -- -- 35
2020-03-11 11:00:00 22.5 2 Este 6 Este 0 -- -- 41
2020-03-11 10:00:00 18.5 4 Sur 6 Sur 0 -- -- 50
2020-03-11 09:00:00 11.9 6 Sur 10 Sur 0 -- -- 66
2020-03-11 08:00:00 7.6 3 Sur 8 Sudeste 0 -- -- 79
2020-03-11 07:00:00 8 5 Sudeste 9 Sur 0 -- -- 78
2020-03-11 06:00:00 8.4 4 Sur 12 Sudeste 0 -- -- 77
2020-03-11 05:00:00 9.9 4 Sur 10 Sur 0 -- -- 72
2020-03-11 04:00:00 10.2 8 Sur 12 Sudeste 0 -- -- 72
2020-03-11 03:00:00 9.6 6 Sudeste 11 Sudeste 0 -- -- 72
2020-03-11 02:00:00 11.5 4 Sur 9 Sur 0 -- -- 68
2020-03-11 01:00:00 11.1 4 Sur 10 Sudeste 0 -- -- 64
2020-03-11 00:00:00 11.7 6 Sur 9 Sur 0 -- -- 59
2020-03-10 23:00:00 11.2 0 Calma 4 Sur 0 -- -- 63
2020-03-10 22:00:00 13.9 2 Sudeste 9 Sudeste 0 -- -- 53
2020-03-10 21:00:00 15.9 4 Sur 7 Sur 0 -- -- 48
2020-03-10 20:00:00 17.1 3 Sudoeste 6 Sudoeste 0 -- -- 46
2020-03-10 19:00:00 19.4 4 Noroeste 14 Noroeste 0 -- -- 41
2020-03-10 18:00:00 21.7 7 Noroeste 19 Oeste 0 -- -- 34
2020-03-10 17:00:00 23.3 10 Noroeste 19 Noroeste 0 -- -- 30
2020-03-10 16:00:00 23.1 10 Noroeste 19 Oeste 0 -- -- 28
2020-03-10 15:00:00 21.9 9 Oeste 18 Norte 0 -- -- 32
2020-03-10 14:00:00 21 5 Noroeste 18 Noroeste 0 -- -- 34
2020-03-10 13:00:00 19.9 8 Noroeste 16 Oeste 0 -- -- 35
2020-03-10 12:00:00 18.6 7 Norte 12 Noroeste 0 -- -- 37
2020-03-10 11:00:00 17.4 3 Sudoeste 7 Sur 0 -- -- 37
2020-03-10 10:00:00 14.6 4 Sur 7 Sur 0 -- -- 43
2020-03-10 09:00:00 12.3 5 Sudeste 8 Sudeste 0 -- -- 50
2020-03-10 08:00:00 6.6 4 Sudeste 8 Sur 0 -- -- 61
2020-03-10 07:00:00 5.9 2 Sur 9 Sur 0 -- -- 63
2020-03-10 06:00:00 6.1 6 Sur 10 Sur 0 -- -- 62
2020-03-10 05:00:00 6.7 6 Sur 9 Sur 0 -- -- 59
2020-03-10 04:00:00 6.5 5 Sur 9 Sudeste 0 -- -- 59
2020-03-10 03:00:00 6.8 5 Sur 8 Sur 0 -- -- 58
2020-03-10 02:00:00 7.1 4 Sur 10 Sur 0 -- -- 56
2020-03-10 01:00:00 7.7 4 Sur 12 Sur 0 -- -- 54
2020-03-10 00:00:00 9.1 4 Sur 7 Oeste 0 -- -- 50
2020-03-09 23:00:00 9.4 3 Oeste 11 Noroeste 0 -- -- 50
2020-03-09 22:00:00 10.2 9 Noroeste 21 Noroeste 0 -- -- 48
2020-03-09 21:00:00 11.6 14 Noroeste 31 Noroeste 0 -- -- 44
2020-03-09 20:00:00 12.8 16 Noroeste 28 Noroeste 0 -- -- 39
2020-03-09 19:00:00 14.7 18 Noroeste 26 Noroeste 0 -- -- 35
2020-03-09 18:00:00 16.9 16 Noroeste 31 Noroeste 0 -- -- 33
2020-03-09 17:00:00 17.2 13 Noroeste 27 Oeste 0 -- -- 35
2020-03-09 16:00:00 16.9 16 Oeste 31 Noroeste 0 -- -- 33
2020-03-09 15:00:00 16.5 17 Noroeste 30 Noroeste 0 -- -- 34
2020-03-09 14:00:00 15.1 14 Noroeste 28 Noroeste 0 -- -- 38
2020-03-09 13:00:00 14.1 12 Noroeste 27 Norte 0 -- -- 45
2020-03-09 12:00:00 12.2 12 Noroeste 25 Noroeste 0 -- -- 54
2020-03-09 11:00:00 10.7 9 Noroeste 22 Noroeste 0 -- -- 56
2020-03-09 10:00:00 9.4 11 Noroeste 19 Noroeste 0 -- -- 63
2020-03-09 09:00:00 7.3 5 Sudeste 14 Oeste 0 -- -- 78
2020-03-09 08:00:00 5 4 Oeste 13 Oeste 0 -- -- 89
2020-03-09 07:00:00 5.6 4 Oeste 12 Oeste 0 -- -- 85
2020-03-09 06:00:00 5 6 Oeste 12 Sudoeste 0 -- -- 91
2020-03-09 05:00:00 5.5 6 Sudoeste 11 Oeste 0 -- -- 89
2020-03-09 04:00:00 6 3 Oeste 12 Oeste 0 -- -- 88
2020-03-09 03:00:00 6.9 8 Oeste 13 Oeste 0 -- -- 82
2020-03-09 02:00:00 7.3 7 Oeste 13 Oeste 0 -- -- 80
2020-03-09 01:00:00 7.2 5 Oeste 9 Oeste 0 -- -- 78
2020-03-09 00:00:00 8.9 6 Oeste 12 Sudoeste 0 -- -- 71
2020-03-08 23:00:00 9 3 Sudeste 8 Sur 0 -- -- 72
2020-03-08 22:00:00 10 3 Sur 16 Oeste 0 -- -- 67
2020-03-08 21:00:00 11.6 9 Oeste 21 Oeste 0 -- -- 62
2020-03-08 20:00:00 13.1 9 Noroeste 15 Oeste 0 -- -- 59
2020-03-08 19:00:00 14 8 Noroeste 23 Oeste 0 -- -- 51
2020-03-08 18:00:00 15.2 8 Oeste 24 Oeste 0 -- -- 45
2020-03-08 17:00:00 16 16 Oeste 29 Oeste 0 -- -- 39
2020-03-08 16:00:00 17.2 15 Oeste 30 Noroeste 0 -- -- 33
2020-03-08 15:00:00 17.1 13 Oeste 33 Noroeste 0 -- -- 38
2020-03-08 14:00:00 16.8 12 Oeste 23 Noroeste 0 -- -- 40
2020-03-08 13:00:00 15.9 11 Oeste 21 Oeste 0 -- -- 42
2020-03-08 12:00:00 14.1 9 Oeste 21 Oeste 0 -- -- 50
2020-03-08 11:00:00 12.9 9 Oeste 19 Oeste 0 -- -- 57
2020-03-08 10:00:00 11.9 4 Sur 9 Sur 0 -- -- 60
2020-03-08 09:00:00 6.2 4 Sur 10 Sur 0 -- -- 75
2020-03-08 08:00:00 2.4 3 Sur 9 Sudeste 0 -- -- 83
2020-03-08 07:00:00 3.4 6 Sur 10 Sur 0 -- -- 81
2020-03-08 06:00:00 3.5 4 Sur 9 Sur 0 -- -- 80
2020-03-08 05:00:00 2.4 6 Sur 12 Sur 0 -- -- 82
2020-03-08 04:00:00 3.9 4 Sur 7 Sur 0 -- -- 79
2020-03-08 03:00:00 4 3 Sur 10 Sur 0 -- -- 77
2020-03-08 02:00:00 5.1 6 Sur 10 Sudeste 0 -- -- 75
2020-03-08 01:00:00 5.9 4 Sur 7 Sudeste 0 -- -- 71
2020-03-08 00:00:00 5.9 2 Sur 14 Sur 0 -- -- 71
2020-03-07 23:00:00 6.5 4 Sudeste 10 Oeste 0 -- -- 69
2020-03-07 22:00:00 7.7 4 Sur 15 Sudoeste 0 -- -- 64
2020-03-07 21:00:00 9.3 2 Oeste 11 Sudeste 0 -- -- 60
2020-03-07 20:00:00 9.8 0 Calma 10 Noroeste 0 -- -- 57
2020-03-07 19:00:00 12.7 4 Noroeste 22 Oeste 0 -- -- 50
2020-03-07 18:00:00 14.2 12 Oeste 24 Oeste 0 -- -- 44
2020-03-07 17:00:00 14.4 14 Oeste 23 Oeste 0 -- -- 43
2020-03-07 16:00:00 14.6 12 Noroeste 26 Noroeste 0 -- -- 43
2020-03-07 15:00:00 13.9 11 Norte 24 Noroeste 0 -- -- 44
2020-03-07 14:00:00 13.3 12 Noroeste 21 Noroeste 0 -- -- 45
2020-03-07 13:00:00 12.1 10 Noroeste 23 Noroeste 0 -- -- 51
2020-03-07 12:00:00 10.3 15 Noroeste 25 Noroeste 0 -- -- 56
2020-03-07 11:00:00 9.7 20 Noroeste 32 Noroeste 0 -- -- 57
2020-03-07 10:00:00 8.8 21 Noroeste 32 Noroeste 0 -- -- 57
2020-03-07 09:00:00 6.7 11 Noroeste 20 Noroeste 0 -- -- 59
2020-03-07 08:00:00 3.5 3 Sudoeste 18 Oeste 0 -- -- 64
2020-03-07 07:00:00 4.4 11 Oeste 18 Oeste 0 -- -- 63
2020-03-07 06:00:00 3.4 5 Noroeste 14 Noroeste 0 -- -- 68
2020-03-07 05:00:00 4.1 7 Noroeste 17 Noroeste 0 -- -- 65
2020-03-07 04:00:00 3.8 7 Noroeste 20 Noroeste 0 -- -- 62
2020-03-07 03:00:00 4.7 13 Noroeste 26 Noroeste 0 -- -- 60
2020-03-07 02:00:00 5.3 14 Noroeste 28 Noroeste 0 -- -- 59
2020-03-07 01:00:00 5.8 14 Noroeste 29 Noroeste 0 -- -- 56
2020-03-07 00:00:00 7 16 Noroeste 36 Oeste 0 -- -- 50
2020-03-06 23:00:00 7.2 16 Noroeste 31 Noroeste 0 -- -- 48
2020-03-06 22:00:00 7.8 15 Norte 35 Noroeste 0 -- -- 52
2020-03-06 21:00:00 7.8 6 Norte 26 Noroeste 0 -- -- 52
2020-03-06 20:00:00 7.9 12 Noroeste 29 Noroeste 0 -- -- 46
2020-03-06 19:00:00 9.8 22 Noroeste 40 Oeste 0 -- -- 41
2020-03-06 18:00:00 11.9 17 Noroeste 35 Noroeste 0 -- -- 37
2020-03-06 17:00:00 11.8 26 Noroeste 45 Noroeste 0 -- -- 38
2020-03-06 16:00:00 11.8 22 Noroeste 40 Noroeste 0 -- -- 39
2020-03-06 15:00:00 10.7 23 Noroeste 53 Noroeste 0 -- -- 41
2020-03-06 14:00:00 10.6 29 Noroeste 57 Noroeste 0 -- -- 40
2020-03-06 13:00:00 9.9 27 Noroeste 42 Norte 0 -- -- 46
2020-03-06 12:00:00 9.9 21 Oeste 49 Oeste 0 -- -- 50
2020-03-06 11:00:00 8.6 21 Oeste 37 Oeste 0 -- -- 56
2020-03-06 10:00:00 7.9 24 Oeste 49 Oeste 0 -- -- 73
2020-03-06 09:00:00 7.4 26 Oeste 40 Sudoeste 0 -- -- 75
2020-03-06 08:00:00 6.4 13 Oeste 28 Oeste 0 -- -- 78
2020-03-06 07:00:00 5.7 12 Oeste 27 Oeste 0 -- -- 76
2020-03-06 06:00:00 6 17 Oeste 28 Oeste 0 -- -- 74
2020-03-06 05:00:00 5.7 14 Oeste 26 Oeste 0 -- -- 75
2020-03-06 04:00:00 5.5 12 Oeste 26 Oeste 0 -- -- 75
2020-03-06 03:00:00 5.7 14 Oeste 27 Oeste 0 -- -- 74
2020-03-06 02:00:00 6.3 13 Oeste 26 Oeste 0 -- -- 74
2020-03-06 01:00:00 7.3 16 Oeste 33 Sudoeste 0 -- -- 69
2020-03-06 00:00:00 7.8 15 Oeste 31 Sudoeste 0 -- -- 70
2020-03-05 23:00:00 8.9 17 Oeste 29 Oeste 0 -- -- 70
2020-03-05 22:00:00 9.7 16 Oeste 31 Oeste 0 -- -- 67
2020-03-05 21:00:00 10.5 14 Oeste 30 Oeste 0 -- -- 62
2020-03-05 20:00:00 11.2 17 Oeste 36 Oeste 0 -- -- 60
2020-03-05 19:00:00 12.7 23 Oeste 44 Oeste 0 -- -- 52
2020-03-05 18:00:00 14.1 24 Oeste 48 Oeste 0 -- -- 48
2020-03-05 17:00:00 14.8 27 Oeste 47 Oeste 0 -- -- 47
2020-03-05 16:00:00 15 28 Oeste 49 Sudoeste 0 -- -- 48
2020-03-05 15:00:00 15 30 Oeste 53 Oeste 0 -- -- 44
2020-03-05 14:00:00 15.2 29 Oeste 49 Oeste 0 -- -- 45
2020-03-05 13:00:00 13.9 32 Oeste 50 Oeste 0 -- -- 68
2020-03-05 12:00:00 13.4 25 Sudoeste 47 Sudoeste 0 -- -- 70
2020-03-05 11:00:00 12 15 Sudoeste 37 Sudoeste 0 -- -- 78
2020-03-05 10:00:00 11.5 19 Sudoeste 35 Sudoeste 0 -- -- 78
2020-03-05 09:00:00 11 18 Sudoeste 31 Sudoeste 0 -- -- 80
2020-03-05 08:00:00 10.4 7 Sur 22 Sudoeste 0 -- -- 82
2020-03-05 07:00:00 10.6 9 Sudoeste 22 Sudoeste 0 -- -- 82
2020-03-05 06:00:00 11.3 9 Sudoeste 20 Sudoeste 0 -- -- 77
2020-03-05 05:00:00 10.5 4 Sur 11 Sur 0 -- -- 81
2020-03-05 04:00:00 9.6 5 Sur 10 Sudeste 0 -- -- 83
2020-03-05 03:00:00 10 4 Sudoeste 13 Sudoeste 0 -- -- 82
2020-03-05 02:00:00 9.1 5 Sudoeste 11 Sudoeste 0 -- -- 86
2020-03-05 01:00:00 9 3 Sudeste 9 Sur 0 -- -- 83
2020-03-05 00:00:00 10.2 5 Sudeste 13 Sur 0 -- -- 80